Thunder radar more information blitzortung!


Radar de pluja more information rain snow radar


Visita la nostra xarxa de llocs de meteo:

Template documentation
and downloads

And another site



Extreme low temperature From: 23-02-2018 09:00 Until: 09:59 warning for: Extreme low temperature Level: Yellow info button

Pagina Historial Weather Underground text

Diari Resum Cap La, TWC- Unitats:  Imperial    Mètric   Tant
« Previous Dia
SegĂźent Dia »
Diari Setmana Mensual Anual Personalitzada
  Maxima: Minima: Media:
Temperatura: TemperatureC °F 1.3 °F 3 °F
Punt de rosada: DewpointC °F -4.6 °F -3.1 °F
Humitat: Humidity % 57 % 64 %
Wind Speed: WindSpeedKMH mph 0.0 mph 2.8 mph
RĂ fegues de vent: WindSpeedGustKMH mph - -
Vent:- - South
Pression baro: PressurehPa in 1002.9 in -
Precipitacions: 0.0 in    
Historical Graphs
 
 
Dades de taula per Cap La, TWC-
Temps Temperatura Punt de rosada Pression baro Vent Wind Speed RĂ fegues de vent Humitat Rainfall Rate (Hourly)
TemperatureC °F DewpointC °F PressurehPa in Calm     Humidity % HourlyPrecipMM in
00:04 5.7 °F -1.2 °F 1006.0 in East 5.6 mph 5.6 mph 61 % 0.0 in
00:09 5.7 °F -1.2 °F 1006.0 in ESE 5.6 mph 5.6 mph 61 % 0.0 in
00:14 5.7 °F -1.2 °F 1006.0 in East 6.1 mph 6.1 mph 61 % 0.0 in
00:19 5.5 °F -1.7 °F 1006.0 in NE 5.6 mph 5.6 mph 60 % 0.0 in
00:24 5.4 °F -1.8 °F 1006.0 in East 6.1 mph 6.1 mph 60 % 0.0 in
00:29 5.2 °F -2.2 °F 1006.0 in SE 7.4 mph 7.4 mph 59 % 0.0 in
00:34 5.0 °F -2.3 °F 1006.0 in East 7.4 mph 7.4 mph 59 % 0.0 in
00:39 4.9 °F -2.4 °F 1005.0 in ESE 5.6 mph 5.6 mph 59 % 0.0 in
00:44 4.8 °F -2.6 °F 1005.0 in ESE 7.4 mph 7.4 mph 59 % 0.0 in
00:49 4.7 °F -2.7 °F 1005.0 in SE 3.7 mph 3.7 mph 59 % 0.0 in
00:54 4.6 °F -2.7 °F 1005.0 in SE 5.6 mph 5.6 mph 59 % 0.0 in
00:59 4.5 °F -2.8 °F 1005.0 in East 5.6 mph 5.6 mph 59 % 0.0 in
01:04 4.5 °F -2.8 °F 1005.0 in ESE 5.6 mph 5.6 mph 59 % 0.0 in
01:09 4.4 °F -3.2 °F 1005.0 in ESE 3.7 mph 3.7 mph 58 % 0.0 in
01:14 4.3 °F -3.2 °F 1005.0 in ESE 3.5 mph   58 % 0.0 in
01:19 4.3 °F -3.2 °F 1005.0 in East 3.7 mph 3.7 mph 58 % 0.0 in
01:24 4.2 °F -3.3 °F 1005.0 in ENE 3.7 mph 3.7 mph 58 % 0.0 in
01:29 4.1 °F -3.4 °F 1005.0 in ESE 3.9 mph 3.9 mph 58 % 0.0 in
01:34 4.1 °F -3.4 °F 1005.0 in SW 1.9 mph   58 % 0.0 in
01:39 3.9 °F -3.4 °F 1005.0 in SW 1.9 mph 1.9 mph 59 % 0.0 in
01:44 3.8 °F -3.5 °F 1005.0 in SE 7.4 mph 7.4 mph 59 % 0.0 in
01:49 3.8 °F -3.5 °F 1005.0 in Calm     59 % 0.0 in
01:54 3.8 °F -3.5 °F 1005.0 in Calm     59 % 0.0 in
01:59 3.8 °F -3.3 °F 1005.0 in Calm     60 % 0.0 in
02:04 3.8 °F -3.3 °F 1005.0 in SSW 3.7 mph 3.7 mph 60 % 0.0 in
02:09 3.8 °F -3.3 °F 1005.0 in SSW 1.9 mph 1.9 mph 60 % 0.0 in
02:14 3.7 °F -3.3 °F 1005.0 in SSW 2.6 mph 2.6 mph 60 % 0.0 in
02:19 3.7 °F -3.1 °F 1005.0 in SW 3.5 mph 3.5 mph 61 % 0.0 in
02:24 3.7 °F -3.3 °F 1005.0 in SSW 4.2 mph 4.2 mph 60 % 0.0 in
02:29 3.7 °F -3.1 °F 1005.0 in SW 3.7 mph 3.7 mph 61 % 0.0 in
02:34 3.8 °F -3.1 °F 1005.0 in SW 3.7 mph 3.7 mph 61 % 0.0 in
02:39 3.8 °F -3.1 °F 1005.0 in WSW 1.9 mph 1.9 mph 61 % 0.0 in
02:44 3.9 °F -2.9 °F 1005.0 in WSW 2.3 mph 2.3 mph 61 % 0.0 in
02:49 4.0 °F -2.8 °F 1005.0 in SW 3.7 mph   61 % 0.0 in
02:54 4.1 °F -2.8 °F 1003.9 in SW 1.9 mph 1.9 mph 61 % 0.0 in
02:59 4.1 °F -2.8 °F 1003.9 in West 3.7 mph 3.7 mph 61 % 0.0 in
03:04 4.1 °F -2.6 °F 1003.9 in SW 5.3 mph 5.3 mph 62 % 0.0 in
03:09 4.1 °F -2.6 °F 1003.9 in SW 3.7 mph 3.7 mph 62 % 0.0 in
03:14 4.1 °F -2.6 °F 1003.9 in SW 3.5 mph   62 % 0.0 in
03:19 4.0 °F -2.4 °F 1003.9 in SW 3.7 mph 3.7 mph 63 % 0.0 in
03:24 4.0 °F -2.4 °F 1005.0 in WSW 1.9 mph 1.9 mph 63 % 0.0 in
03:29 3.9 °F -2.3 °F 1005.0 in Calm     64 % 0.0 in
03:34 3.8 °F -2.4 °F 1005.0 in SW 3.7 mph 3.7 mph 64 % 0.0 in
03:39 3.7 °F -2.5 °F 1003.9 in WSW 3.7 mph 3.7 mph 64 % 0.0 in
03:44 3.7 °F -2.5 °F 1003.9 in WSW 3.7 mph 3.7 mph 64 % 0.0 in
03:49 3.5 °F -2.7 °F 1003.9 in SW 3.7 mph 3.7 mph 64 % 0.0 in
03:54 3.4 °F -2.6 °F 1003.9 in SW 2.3 mph 2.3 mph 65 % 0.0 in
03:59 3.3 °F -2.7 °F 1003.9 in WSW 4.7 mph 4.7 mph 65 % 0.0 in
04:04 3.2 °F -2.8 °F 1003.9 in WSW 3.7 mph 3.7 mph 65 % 0.0 in
04:09 3.1 °F -2.7 °F 1003.9 in WSW 1.9 mph 1.9 mph 66 % 0.0 in
04:14 3.1 °F -2.7 °F 1003.9 in Calm     66 % 0.0 in
04:19 3.1 °F -2.4 °F 1003.9 in Calm     67 % 0.0 in
04:24 3.1 °F -2.2 °F 1003.9 in Calm     68 % 0.0 in
04:29 3.1 °F -2.2 °F 1003.9 in Calm     68 % 0.0 in
04:34 3.1 °F -2.2 °F 1003.9 in Calm     68 % 0.0 in
04:39 3.0 °F -2.3 °F 1003.9 in Calm     68 % 0.0 in
04:44 3.0 °F -2.3 °F 1003.9 in Calm     68 % 0.0 in
04:49 2.9 °F -2.2 °F 1003.9 in Calm     69 % 0.0 in
04:54 2.8 °F -2.5 °F 1002.9 in Calm     68 % 0.0 in
04:59 2.7 °F -2.4 °F 1002.9 in Calm     69 % 0.0 in
05:04 2.6 °F -2.5 °F 1002.9 in SSE 1.9 mph 1.9 mph 69 % 0.0 in
05:09 2.6 °F -2.5 °F 1003.9 in Calm     69 % 0.0 in
05:14 2.5 °F -2.6 °F 1003.9 in Calm     69 % 0.0 in
05:19 2.6 °F -2.5 °F 1003.9 in Calm     69 % 0.0 in
05:24 2.5 °F -2.4 °F 1003.9 in SW 3.7 mph   70 % 0.0 in
05:29 2.4 °F -2.7 °F 1003.9 in SW 3.7 mph 3.7 mph 69 % 0.0 in
05:34 2.2 °F -2.9 °F 1003.9 in WSW 3.7 mph 3.7 mph 69 % 0.0 in
05:39 2.3 °F -2.8 °F 1003.9 in SW 3.7 mph 3.7 mph 69 % 0.0 in
05:44 2.2 °F -2.9 °F 1003.9 in SW 3.7 mph   69 % 0.0 in
05:49 2.1 °F -2.8 °F 1003.9 in SE 1.9 mph 1.9 mph 70 % 0.0 in
05:54 2.0 °F -2.9 °F 1003.9 in SW 3.7 mph 3.7 mph 70 % 0.0 in
05:59 2.0 °F -2.9 °F 1003.9 in SW 1.9 mph   70 % 0.0 in
06:04 2.0 °F -2.9 °F 1003.9 in WSW 3.7 mph 3.7 mph 70 % 0.0 in
06:09 2.0 °F -2.9 °F 1003.9 in SW 3.9 mph 3.9 mph 70 % 0.0 in
06:14 1.9 °F -3.0 °F 1003.9 in WSW 3.7 mph 3.7 mph 70 % 0.0 in
06:19 1.8 °F -3.3 °F 1003.9 in SW 3.7 mph 3.7 mph 69 % 0.0 in
06:24 1.8 °F -3.1 °F 1005.0 in SW 1.9 mph   70 % 0.0 in
06:29 1.7 °F -3.2 °F 1005.0 in SW 2.3 mph 2.3 mph 70 % 0.0 in
06:34 1.7 °F -3.2 °F 1005.0 in WSW 3.7 mph 3.7 mph 70 % 0.0 in
06:39 1.6 °F -3.3 °F 1005.0 in SW 1.9 mph 1.9 mph 70 % 0.0 in
06:44 1.6 °F -3.1 °F 1005.0 in Calm     71 % 0.0 in
06:49 1.6 °F -3.1 °F 1005.0 in Calm     71 % 0.0 in
06:54 1.5 °F -3.2 °F 1005.0 in SW 1.9 mph 1.9 mph 71 % 0.0 in
06:59 1.4 °F -3.5 °F 1005.0 in WNW 1.4 mph   70 % 0.0 in
07:04 1.3 °F -3.8 °F 1005.0 in Calm     69 % 0.0 in
07:09 1.5 °F -3.6 °F 1005.0 in Calm     69 % 0.0 in
07:14 1.5 °F -3.6 °F 1005.0 in East 3.5 mph   69 % 0.0 in
07:19 1.5 °F -3.6 °F 1005.0 in NNE 3.7 mph 3.7 mph 69 % 0.0 in
07:24 1.4 °F -3.9 °F 1006.0 in SW 4.2 mph 4.2 mph 68 % 0.0 in
07:29 1.4 °F -4.1 °F 1006.0 in West 4.7 mph 4.7 mph 67 % 0.0 in
07:34 1.5 °F -4.2 °F 1006.0 in Calm     66 % 0.0 in
07:39 1.5 °F -4.2 °F 1006.0 in Calm     66 % 0.0 in
07:44 1.5 °F -4.2 °F 1006.0 in West 1.9 mph   66 % 0.0 in
07:49 1.6 °F -4.3 °F 1006.0 in Calm     65 % 0.0 in
07:54 1.6 °F -4.3 °F 1006.0 in West 1.9 mph 1.9 mph 65 % 0.0 in
07:59 1.5 °F -4.2 °F 1006.0 in SW 3.7 mph 3.7 mph 66 % 0.0 in
08:04 1.5 °F -4.2 °F 1006.0 in Calm     66 % 0.0 in
08:09 1.6 °F -4.1 °F 1006.0 in Calm     66 % 0.0 in
08:14 1.6 °F -4.1 °F 1006.0 in Calm     66 % 0.0 in
08:19 1.7 °F -4.2 °F 1006.0 in SSW 1.9 mph   65 % 0.0 in
08:24 1.8 °F -4.1 °F 1006.0 in ENE 1.4 mph   65 % 0.0 in
08:29 1.9 °F -4.2 °F 1006.0 in East 3.5 mph 3.5 mph 64 % 0.0 in
08:34 1.9 °F -4.2 °F 1006.0 in NE 3.7 mph 3.7 mph 64 % 0.0 in
08:39 2.0 °F -4.3 °F 1006.0 in North 3.7 mph 3.7 mph 63 % 0.0 in
08:44 2.1 °F -4.4 °F 1006.0 in ENE 3.7 mph 3.7 mph 62 % 0.0 in
08:49 2.2 °F -4.3 °F 1006.0 in Calm     62 % 0.0 in
08:54 2.3 °F -4.1 °F 1006.0 in ENE 3.7 mph   63 % 0.0 in
08:59 2.4 °F -4.2 °F 1006.0 in Calm     62 % 0.0 in
09:04 2.3 °F -4.4 °F 1006.0 in ENE 1.9 mph 1.9 mph 61 % 0.0 in
09:09 2.5 °F -4.3 °F 1006.0 in NE 6.4 mph 6.4 mph 61 % 0.0 in
09:14 2.6 °F -4.4 °F 1006.0 in NNW 3.7 mph 3.7 mph 60 % 0.0 in
09:19 2.8 °F -4.4 °F 1006.0 in NNE 3.7 mph 3.7 mph 59 % 0.0 in
09:24 2.9 °F -4.6 °F 1006.0 in ENE 5.0 mph 5.0 mph 58 % 0.0 in
09:29 3.0 °F -4.4 °F 1006.0 in NE 3.9 mph 3.9 mph 58 % 0.0 in
09:34 3.2 °F -4.5 °F 1006.0 in ENE 1.9 mph   57 % 0.0 in
09:39 3.4 °F -4.3 °F 1006.0 in ENE 5.6 mph 5.6 mph 57 % 0.0 in
09:44 3.5 °F -4.2 °F 1006.0 in North 4.7 mph 4.7 mph 57 % 0.0 in
Meteo Sesrovires
Elogis d' Weather Underground - 3 mb

Guio original per  Jim McMurry - jmcmurry@mwt.net Adaptat per a la plantilla per  Wim van der Kuil - Leuven-Template.eu

Trobareu la nostra informacio del temps tambe a:

Weather Underground

AWEKAS